createdAt,value
2023-04-27T00:00:26.995Z,13.60
2023-04-27T00:01:27.567Z,11.00
2023-04-27T00:02:27.828Z,13.10
2023-04-27T00:03:28.078Z,10.50
2023-04-27T00:04:28.425Z,19.00
2023-04-27T00:05:28.694Z,12.50
2023-04-27T00:06:28.868Z,11.60
2023-04-27T00:07:29.120Z,11.90
2023-04-27T00:08:29.480Z,11.50
2023-04-27T00:09:29.765Z,10.40
2023-04-27T00:10:30.109Z,9.70
2023-04-27T00:11:30.509Z,12.30
2023-04-27T00:12:30.527Z,12.60
2023-04-27T00:13:30.990Z,11.50
2023-04-27T00:14:31.233Z,12.90
2023-04-27T00:15:31.574Z,10.00
2023-04-27T00:16:32.062Z,10.80
2023-04-27T00:17:32.219Z,12.80
2023-04-27T00:18:32.563Z,11.50
2023-04-27T00:19:32.760Z,11.30
2023-04-27T00:20:33.056Z,11.70
2023-04-27T00:21:33.350Z,11.00
2023-04-27T00:22:33.696Z,9.70
2023-04-27T00:23:33.973Z,10.10
2023-04-27T00:24:34.273Z,12.30
2023-04-27T00:25:34.702Z,10.60
2023-04-27T00:26:34.896Z,11.40
2023-04-27T00:27:35.241Z,11.10
2023-04-27T00:28:35.414Z,13.20
2023-04-27T00:29:35.723Z,10.70
2023-04-27T00:30:36.065Z,11.50
2023-04-27T00:31:36.371Z,11.90
2023-04-27T00:32:36.652Z,12.30
2023-04-27T00:33:37.121Z,11.60
2023-04-27T00:34:37.248Z,10.70
2023-04-27T00:35:37.532Z,15.00
2023-04-27T00:36:37.949Z,12.40
2023-04-27T00:37:38.184Z,12.50
2023-04-27T00:38:38.654Z,12.30
2023-04-27T00:39:38.818Z,12.80
2023-04-27T00:40:39.105Z,12.70
2023-04-27T00:41:39.414Z,13.20
2023-04-27T00:42:40.976Z,13.30
2023-04-27T00:43:39.931Z,12.10
2023-04-27T00:44:40.650Z,12.10
2023-04-27T00:45:40.578Z,13.30
2023-04-27T00:46:40.792Z,10.90
2023-04-27T00:47:41.440Z,11.30
2023-04-27T00:48:41.397Z,12.10
2023-04-27T00:49:41.705Z,13.20
2023-04-27T00:50:41.881Z,11.60
2023-04-27T00:51:42.207Z,14.20
2023-04-27T00:52:42.435Z,10.00
2023-04-27T00:53:42.789Z,10.80
2023-04-27T00:54:43.126Z,12.50
2023-04-27T00:55:43.379Z,14.30
2023-04-27T00:56:43.701Z,11.30
2023-04-27T00:57:44.150Z,11.80
2023-04-27T00:58:44.303Z,11.70
2023-04-27T00:59:45.451Z,12.50
2023-04-27T01:00:44.823Z,14.10
2023-04-27T01:01:45.212Z,13.50
2023-04-27T01:02:46.042Z,13.90
2023-04-27T01:03:45.915Z,12.60
2023-04-27T01:04:45.943Z,13.00
2023-04-27T01:05:46.304Z,11.80
2023-04-27T01:06:46.440Z,11.90
2023-04-27T01:07:46.769Z,12.70
2023-04-27T01:08:46.940Z,13.00
2023-04-27T01:09:47.409Z,12.30
2023-04-27T01:10:47.528Z,12.00
2023-04-27T01:11:47.819Z,11.60
2023-04-27T01:12:48.244Z,11.80
2023-04-27T01:13:48.394Z,13.80
2023-04-27T01:14:48.737Z,10.60
2023-04-27T01:15:49.337Z,11.90
2023-04-27T01:16:49.347Z,12.20
2023-04-27T01:17:49.711Z,12.80
2023-04-27T01:18:49.944Z,12.50
2023-04-27T01:19:50.274Z,11.60
2023-04-27T01:20:50.541Z,10.70
2023-04-27T01:21:51.135Z,10.20
2023-04-27T01:22:51.038Z,12.30
2023-04-27T01:23:51.393Z,13.60
2023-04-27T01:24:51.640Z,10.20
2023-04-27T01:25:51.963Z,11.40
2023-04-27T01:26:53.206Z,15.80
2023-04-27T01:27:52.506Z,12.10
2023-04-27T01:28:52.789Z,10.80
2023-04-27T01:29:53.207Z,13.00
2023-04-27T01:30:53.351Z,13.00
2023-04-27T01:31:53.606Z,11.00
2023-04-27T01:32:53.888Z,12.00
2023-04-27T01:33:54.208Z,13.80
2023-04-27T01:34:54.536Z,12.90
2023-04-27T01:35:54.809Z,13.50
2023-04-27T01:36:55.112Z,13.30
2023-04-27T01:37:55.441Z,12.40
2023-04-27T01:38:55.721Z,13.30
2023-04-27T01:39:56.076Z,14.20
2023-04-27T01:40:56.330Z,12.90
2023-04-27T01:41:58.346Z,11.20
2023-04-27T01:42:56.973Z,12.90
2023-04-27T01:43:57.269Z,13.40
2023-04-27T01:44:57.636Z,12.50
2023-04-27T01:45:57.899Z,12.80
2023-04-27T01:46:58.152Z,14.60
2023-04-27T01:47:58.475Z,13.70
2023-04-27T01:48:58.743Z,15.00
2023-04-27T01:49:59.104Z,14.60
2023-04-27T01:51:20.379Z,15.10
2023-04-27T01:51:59.731Z,14.50
2023-04-27T01:53:00.126Z,14.80
2023-04-27T01:54:21.359Z,15.50
2023-04-27T01:55:00.647Z,12.90
2023-04-27T01:56:00.960Z,13.60
2023-04-27T01:57:01.319Z,13.90
2023-04-27T01:58:01.548Z,14.70
2023-04-27T01:59:01.838Z,16.20
2023-04-27T02:00:02.171Z,16.50
2023-04-27T02:01:02.588Z,16.60
2023-04-27T02:02:02.904Z,14.40
2023-04-27T02:03:24.124Z,15.20
2023-04-27T02:04:24.286Z,15.60
2023-04-27T02:05:03.440Z,15.40
2023-04-27T02:06:03.781Z,13.30
2023-04-27T02:07:03.997Z,13.20
2023-04-27T02:08:04.335Z,14.70
2023-04-27T02:09:25.612Z,14.40
2023-04-27T02:10:04.954Z,13.40
2023-04-27T02:11:05.163Z,15.20
2023-04-27T02:12:05.496Z,15.50
2023-04-27T02:13:05.790Z,14.70
2023-04-27T02:14:06.083Z,14.50
2023-04-27T02:15:06.488Z,15.60
2023-04-27T02:16:06.793Z,14.60
2023-04-27T02:17:07.097Z,13.70
2023-04-27T02:18:28.465Z,15.90
2023-04-27T02:19:07.617Z,16.60
2023-04-27T02:20:08.230Z,16.40
2023-04-27T02:21:29.163Z,15.20
2023-04-27T02:22:09.383Z,14.00
2023-04-27T02:23:08.795Z,12.90
2023-04-27T02:24:09.064Z,15.30
2023-04-27T02:25:09.807Z,14.70
2023-04-27T02:26:09.817Z,14.90
2023-04-27T02:27:09.990Z,15.90
2023-04-27T02:30:43.090Z,18.40
2023-04-27T02:31:43.396Z,19.00
2023-04-27T02:32:43.570Z,17.30
2023-04-27T02:33:43.865Z,17.50
2023-04-27T02:35:05.199Z,14.40
2023-04-27T02:36:05.528Z,14.60
2023-04-27T02:39:15.852Z,15.70
2023-04-27T02:40:15.862Z,15.10
2023-04-27T02:42:31.624Z,19.90
2023-04-27T02:43:31.913Z,20.60
2023-04-27T02:45:48.623Z,13.40
2023-04-27T02:46:48.915Z,14.10
2023-04-27T02:48:10.313Z,16.30
2023-04-27T02:48:49.461Z,14.50
2023-04-27T02:52:21.656Z,15.00
2023-04-27T02:54:37.227Z,14.40
2023-04-27T02:56:53.898Z,14.90
2023-04-27T02:58:15.223Z,15.70
2023-04-27T02:59:15.838Z,14.30
2023-04-27T03:00:15.763Z,14.40
2023-04-27T03:01:16.131Z,12.50
2023-04-27T03:02:16.551Z,14.90
2023-04-27T03:02:55.690Z,19.00
2023-04-27T03:03:56.038Z,14.80
2023-04-27T03:05:17.083Z,14.70
2023-04-27T03:07:12.816Z,17.10
2023-04-27T03:08:34.137Z,16.00
2023-04-27T03:09:34.348Z,13.90
2023-04-27T03:10:34.602Z,16.90
2023-04-27T03:14:05.659Z,15.70
2023-04-27T03:18:31.241Z,16.40
2023-04-27T03:19:52.501Z,16.50
2023-04-27T03:20:31.780Z,13.80
2023-04-27T03:21:32.151Z,14.30
2023-04-27T03:22:32.309Z,16.40
2023-04-27T03:23:32.669Z,16.80
2023-04-27T03:24:32.961Z,16.70
2023-04-27T03:25:33.183Z,14.10
2023-04-27T03:26:33.446Z,15.10
2023-04-27T03:27:33.819Z,15.60
2023-04-27T03:28:34.113Z,15.20
2023-04-27T03:29:34.645Z,15.10
2023-04-27T03:30:34.686Z,14.10
2023-04-27T03:31:35.106Z,14.30
2023-04-27T03:32:35.436Z,19.00
2023-04-27T03:33:35.598Z,19.30
2023-04-27T03:34:35.958Z,15.90
2023-04-27T03:35:36.306Z,16.60
2023-04-27T03:36:36.579Z,14.70
2023-04-27T03:37:36.888Z,17.50
2023-04-27T03:38:37.040Z,15.90
2023-04-27T03:39:37.427Z,18.10
2023-04-27T03:40:37.676Z,18.60
2023-04-27T03:41:37.951Z,18.40
2023-04-27T03:42:38.158Z,17.90
2023-04-27T03:43:38.549Z,14.00
2023-04-27T03:44:39.021Z,15.30
2023-04-27T03:45:39.154Z,18.20
2023-04-27T03:46:39.540Z,19.30
2023-04-27T03:47:39.704Z,15.50
2023-04-27T03:48:39.915Z,17.50
2023-04-27T03:49:40.201Z,17.50
2023-04-27T03:50:40.570Z,20.30
2023-04-27T03:51:40.732Z,15.70
2023-04-27T03:52:41.067Z,18.60
2023-04-27T03:53:41.304Z,15.60
2023-04-27T03:54:41.521Z,19.60
2023-04-27T03:55:41.982Z,18.20
2023-04-27T03:56:42.176Z,16.20
2023-04-27T03:57:42.343Z,19.20
2023-04-27T03:58:42.656Z,17.90
2023-04-27T03:59:43.016Z,19.90
2023-04-27T04:00:43.194Z,17.50
2023-04-27T04:01:43.559Z,16.50
2023-04-27T04:02:43.913Z,16.90
2023-04-27T04:03:44.235Z,18.50
2023-04-27T04:04:44.435Z,20.50
2023-04-27T04:05:44.657Z,15.20
2023-04-27T04:06:44.863Z,15.10
2023-04-27T04:07:45.184Z,17.00
2023-04-27T04:08:45.400Z,17.90
2023-04-27T04:09:45.789Z,16.40
2023-04-27T04:10:46.099Z,18.60
2023-04-27T04:11:46.294Z,17.10
2023-04-27T04:12:46.529Z,16.80
2023-04-27T04:13:46.860Z,17.30
2023-04-27T04:14:47.245Z,14.40
2023-04-27T04:15:47.582Z,15.70
2023-04-27T04:16:47.807Z,15.00
2023-04-27T04:17:48.018Z,16.90
2023-04-27T04:18:48.457Z,18.30
2023-04-27T04:19:48.675Z,15.10
2023-04-27T04:20:48.849Z,19.60
2023-04-27T04:21:50.193Z,19.10
2023-04-27T04:22:49.603Z,16.80
2023-04-27T04:23:49.842Z,14.90
2023-04-27T04:24:50.010Z,17.50
2023-04-27T04:25:50.400Z,18.70
2023-04-27T04:26:50.712Z,16.00
2023-04-27T04:27:50.886Z,15.30
2023-04-27T04:28:51.210Z,14.50
2023-04-27T04:29:51.430Z,14.60
2023-04-27T04:30:51.776Z,14.60
2023-04-27T04:31:52.239Z,16.60
2023-04-27T04:32:52.461Z,16.60
2023-04-27T04:33:52.654Z,17.00
2023-04-27T04:34:53.001Z,17.60
2023-04-27T04:35:53.443Z,15.90
2023-04-27T04:36:53.633Z,19.60
2023-04-27T04:37:53.985Z,16.00
2023-04-27T04:38:54.132Z,17.30
2023-04-27T04:39:54.403Z,17.90
2023-04-27T04:40:54.718Z,19.30
2023-04-27T04:41:54.882Z,18.30
2023-04-27T04:42:55.379Z,18.30
2023-04-27T04:43:55.560Z,18.80
2023-04-27T04:44:55.785Z,19.00
2023-04-27T04:45:56.158Z,17.10
2023-04-27T04:46:56.463Z,16.50
2023-04-27T04:47:57.221Z,17.60
2023-04-27T04:48:57.071Z,17.50
2023-04-27T04:49:57.283Z,18.00
2023-04-27T04:50:57.692Z,21.90
2023-04-27T04:51:57.907Z,18.60
2023-04-27T04:52:58.528Z,17.30
2023-04-27T04:54:01.110Z,23.50
2023-04-27T04:54:58.941Z,24.30
2023-04-27T04:55:59.138Z,30.20
2023-04-27T04:56:59.397Z,59.60
2023-04-27T04:58:00.539Z,57.90
2023-04-27T04:58:59.918Z,36.60
2023-04-27T05:00:01.088Z,21.10
2023-04-27T05:01:00.392Z,28.20
2023-04-27T05:02:00.689Z,35.60
2023-04-27T05:03:00.998Z,29.60
2023-04-27T05:04:01.568Z,24.50
2023-04-27T05:05:01.495Z,38.20
2023-04-27T05:06:01.788Z,37.20
2023-04-27T05:07:02.014Z,29.60
2023-04-27T05:08:02.275Z,38.20
2023-04-27T05:09:02.587Z,23.10
2023-04-27T05:10:02.850Z,23.10
2023-04-27T05:11:03.089Z,23.40
2023-04-27T05:12:03.246Z,20.30
2023-04-27T05:13:05.927Z,23.10
2023-04-27T05:14:03.901Z,20.80
2023-04-27T05:15:04.182Z,20.80
2023-04-27T05:16:04.398Z,21.30
2023-04-27T05:17:04.729Z,19.70
2023-04-27T05:18:05.036Z,21.80
2023-04-27T05:19:05.211Z,19.10
2023-04-27T05:20:06.022Z,22.20
2023-04-27T05:21:05.851Z,21.30
2023-04-27T05:22:06.248Z,22.00
2023-04-27T05:23:06.478Z,24.70
2023-04-27T05:24:06.774Z,22.60
2023-04-27T05:25:06.981Z,21.70
2023-04-27T05:26:07.252Z,22.80
2023-04-27T05:27:07.702Z,24.00
2023-04-27T05:28:07.895Z,23.90
2023-04-27T05:29:08.560Z,29.00
2023-04-27T05:30:08.574Z,27.00
2023-04-27T05:31:08.948Z,23.20
2023-04-27T05:32:09.261Z,26.30
2023-04-27T05:33:09.976Z,23.80
2023-04-27T05:34:09.769Z,24.80
2023-04-27T05:35:10.074Z,23.60
2023-04-27T05:36:10.344Z,23.60
2023-04-27T05:37:10.509Z,20.60
2023-04-27T05:38:10.882Z,24.10
2023-04-27T05:39:11.179Z,24.00
2023-04-27T05:40:11.446Z,23.40
2023-04-27T05:41:11.675Z,22.30
2023-04-27T05:42:11.920Z,29.30
2023-04-27T05:43:12.231Z,24.50
2023-04-27T05:44:12.453Z,28.90
2023-04-27T05:45:12.836Z,25.80
2023-04-27T05:46:13.052Z,24.60
2023-04-27T05:47:13.330Z,29.50
2023-04-27T05:48:13.514Z,33.70
2023-04-27T05:49:14.051Z,38.80
2023-04-27T05:50:14.587Z,32.10
2023-04-27T05:51:14.405Z,33.90
2023-04-27T05:52:14.628Z,34.00
2023-04-27T05:53:14.859Z,36.80
2023-04-27T05:54:15.215Z,41.20
2023-04-27T05:55:15.578Z,38.70
2023-04-27T05:56:15.769Z,38.00
2023-04-27T05:57:15.992Z,36.10
2023-04-27T05:58:16.354Z,33.40
2023-04-27T05:59:16.780Z,36.30
2023-04-27T06:00:17.834Z,39.70
2023-04-27T06:01:17.269Z,35.60
2023-04-27T06:02:17.572Z,33.10
2023-04-27T06:03:17.865Z,35.20
2023-04-27T06:04:18.212Z,40.30
2023-04-27T06:05:18.495Z,39.10
2023-04-27T06:06:18.816Z,43.70
2023-04-27T06:07:18.946Z,51.80
2023-04-27T06:08:19.267Z,40.60
2023-04-27T06:09:19.482Z,34.20
2023-04-27T06:10:19.936Z,31.40
2023-04-27T06:11:20.059Z,34.40
2023-04-27T06:12:20.297Z,33.50
2023-04-27T06:13:20.676Z,33.00
2023-04-27T06:14:21.882Z,33.40
2023-04-27T06:15:23.335Z,28.20
2023-04-27T06:16:23.309Z,26.40
2023-04-27T06:17:24.475Z,28.10
2023-04-27T06:18:21.964Z,24.00
2023-04-27T06:19:22.314Z,27.20
2023-04-27T06:20:22.472Z,27.50
2023-04-27T06:21:22.743Z,23.70
2023-04-27T06:22:23.157Z,28.40
2023-04-27T06:23:23.336Z,22.70
2023-04-27T06:24:23.588Z,23.10
2023-04-27T06:25:26.640Z,21.50
2023-04-27T06:26:24.111Z,27.40
2023-04-27T06:27:24.356Z,22.60
2023-04-27T06:28:24.590Z,20.10
2023-04-27T06:29:24.888Z,24.80
2023-04-27T06:30:25.212Z,24.50
2023-04-27T06:31:25.551Z,23.70
2023-04-27T06:32:26.162Z,24.20
2023-04-27T06:33:26.077Z,24.00
2023-04-27T06:34:26.300Z,23.90
2023-04-27T06:35:26.614Z,29.70
2023-04-27T06:36:27.363Z,21.70
2023-04-27T06:37:27.185Z,22.50
2023-04-27T06:38:27.706Z,23.50
2023-04-27T06:39:27.878Z,35.90
2023-04-27T06:40:28.189Z,32.80
2023-04-27T06:41:28.479Z,24.20
2023-04-27T06:42:28.566Z,27.10
2023-04-27T06:43:29.081Z,24.50
2023-04-27T06:44:29.171Z,22.80
2023-04-27T06:45:29.588Z,23.20
2023-04-27T06:46:29.779Z,23.40
2023-04-27T06:47:30.188Z,24.10
2023-04-27T06:48:30.504Z,34.40
2023-04-27T06:49:30.919Z,25.60
2023-04-27T06:50:31.022Z,25.00
2023-04-27T06:51:31.241Z,25.50
2023-04-27T06:52:31.564Z,25.50
2023-04-27T06:53:32.065Z,28.90
2023-04-27T06:54:32.108Z,25.10
2023-04-27T06:55:32.348Z,21.70
2023-04-27T06:56:32.580Z,21.90
2023-04-27T06:57:32.894Z,22.10
2023-04-27T06:58:33.169Z,22.20
2023-04-27T06:59:33.491Z,20.80
2023-04-27T07:00:33.854Z,23.20
2023-04-27T07:01:33.972Z,24.00
2023-04-27T07:02:34.289Z,21.80
2023-04-27T07:03:34.708Z,26.50
2023-04-27T07:04:35.799Z,21.80
2023-04-27T07:05:35.092Z,25.00
2023-04-27T07:06:35.296Z,25.50
2023-04-27T07:07:35.671Z,24.60
2023-04-27T07:08:36.941Z,21.30
2023-04-27T07:09:36.195Z,23.90
2023-04-27T07:10:36.431Z,26.00
2023-04-27T07:11:36.867Z,23.30
2023-04-27T07:12:36.877Z,23.70
2023-04-27T07:13:37.285Z,23.60
2023-04-27T07:14:37.631Z,21.40
2023-04-27T07:15:37.870Z,20.30
2023-04-27T07:16:38.144Z,20.40
2023-04-27T07:17:38.473Z,25.60
2023-04-27T07:18:38.723Z,21.60
2023-04-27T07:19:38.993Z,22.40
2023-04-27T07:20:40.616Z,21.80
2023-04-27T07:21:39.577Z,23.90
2023-04-27T07:22:39.813Z,20.40
2023-04-27T07:23:40.113Z,21.40
2023-04-27T07:24:40.339Z,20.00
2023-04-27T07:25:40.832Z,25.90
2023-04-27T07:26:40.915Z,19.80
2023-04-27T07:27:41.270Z,30.20
2023-04-27T07:28:42.755Z,21.00
2023-04-27T07:29:41.791Z,21.70
2023-04-27T07:30:42.521Z,21.30
2023-04-27T07:31:44.198Z,19.80
2023-04-27T07:32:42.703Z,16.40
2023-04-27T07:33:42.944Z,19.10
2023-04-27T07:34:52.523Z,17.70
2023-04-27T07:35:44.667Z,23.40
2023-04-27T07:36:43.979Z,22.30
2023-04-27T07:37:44.185Z,27.10
2023-04-27T07:38:44.486Z,18.60
2023-04-27T07:39:44.729Z,18.10
2023-04-27T07:40:45.053Z,15.80
2023-04-27T07:41:45.374Z,18.00
2023-04-27T07:42:45.672Z,20.50
2023-04-27T07:43:45.914Z,17.70
2023-04-27T07:44:46.178Z,18.50
2023-04-27T07:45:47.354Z,18.60
2023-04-27T07:46:46.796Z,18.20
2023-04-27T07:47:46.992Z,17.30
2023-04-27T07:48:47.355Z,17.80
2023-04-27T07:49:47.657Z,20.50
2023-04-27T07:50:47.907Z,20.00
2023-04-27T07:51:48.100Z,17.40
2023-04-27T07:52:48.455Z,16.10
2023-04-27T07:53:49.500Z,19.40
2023-04-27T07:54:48.954Z,20.00
2023-04-27T07:55:49.217Z,17.30
2023-04-27T07:56:49.460Z,17.80
2023-04-27T07:57:49.749Z,20.20
2023-04-27T07:58:50.088Z,18.30
2023-04-27T07:59:50.419Z,19.10
2023-04-27T08:00:50.692Z,18.50
2023-04-27T08:01:50.967Z,17.80
2023-04-27T08:02:51.412Z,17.80
2023-04-27T08:03:52.543Z,19.00
2023-04-27T08:04:52.105Z,16.00
2023-04-27T08:05:53.344Z,19.20
2023-04-27T08:06:52.535Z,18.50
2023-04-27T08:07:53.153Z,19.10
2023-04-27T08:08:52.949Z,23.20
2023-04-27T08:09:53.249Z,17.00
2023-04-27T08:10:53.478Z,16.20
2023-04-27T08:11:54.580Z,19.60
2023-04-27T08:12:54.095Z,17.10
2023-04-27T08:13:54.347Z,18.40
2023-04-27T08:14:54.628Z,21.50
2023-04-27T08:15:54.974Z,18.00
2023-04-27T08:16:55.294Z,20.60
2023-04-27T08:17:55.466Z,16.80
2023-04-27T08:18:55.682Z,22.50
2023-04-27T08:19:55.950Z,14.50
2023-04-27T08:20:56.275Z,19.00
2023-04-27T08:21:56.531Z,17.50
2023-04-27T08:22:56.730Z,18.00
2023-04-27T08:23:57.118Z,17.30
2023-04-27T08:24:57.327Z,15.20
2023-04-27T08:25:57.643Z,18.80
2023-04-27T08:26:58.031Z,19.00
2023-04-27T08:27:58.300Z,16.70
2023-04-27T08:28:58.733Z,19.00
2023-04-27T08:29:58.855Z,15.70
2023-04-27T08:30:59.136Z,18.60
2023-04-27T08:32:00.349Z,17.20
2023-04-27T08:32:59.681Z,15.00
2023-04-27T08:34:01.005Z,15.60
2023-04-27T08:35:00.187Z,16.70
2023-04-27T08:36:00.519Z,16.40
2023-04-27T08:37:00.765Z,17.20
2023-04-27T08:38:01.122Z,24.70
2023-04-27T08:39:01.340Z,16.70
2023-04-27T08:40:02.961Z,18.70
2023-04-27T08:41:14.180Z,20.60
2023-04-27T08:42:03.279Z,19.90
2023-04-27T08:43:02.591Z,20.90
2023-04-27T08:44:02.795Z,19.70
2023-04-27T08:45:03.096Z,17.50
2023-04-27T08:46:03.452Z,15.20
2023-04-27T08:47:03.678Z,15.40
2023-04-27T08:48:04.013Z,63.50
2023-04-27T08:49:04.420Z,20.10
2023-04-27T08:50:04.548Z,15.60
2023-04-27T08:51:05.081Z,16.30
2023-04-27T08:52:06.244Z,17.20
2023-04-27T08:53:05.471Z,16.10
2023-04-27T08:54:05.690Z,13.60
2023-04-27T08:55:06.037Z,14.90
2023-04-27T08:56:06.309Z,13.90
2023-04-27T08:57:06.549Z,18.10
2023-04-27T08:58:06.820Z,15.30
2023-04-27T08:59:07.134Z,18.70
2023-04-27T09:00:07.355Z,12.90
2023-04-27T09:01:07.613Z,15.80
2023-04-27T09:02:08.078Z,18.50
2023-04-27T09:03:08.416Z,14.20
2023-04-27T09:04:08.769Z,16.00
2023-04-27T09:05:09.822Z,19.10
2023-04-27T09:06:09.187Z,16.80
2023-04-27T09:07:09.468Z,15.20
2023-04-27T09:08:09.768Z,17.40
2023-04-27T09:09:09.986Z,14.60
2023-04-27T09:10:10.223Z,17.90
2023-04-27T09:11:10.533Z,19.30
2023-04-27T09:12:10.841Z,17.10
2023-04-27T09:13:11.125Z,16.20
2023-04-27T09:14:11.333Z,14.90
2023-04-27T09:15:11.589Z,18.20
2023-04-27T09:16:12.097Z,21.40
2023-04-27T09:17:12.177Z,17.40
2023-04-27T09:18:12.518Z,16.60
2023-04-27T09:19:13.111Z,17.20
2023-04-27T09:20:12.962Z,18.40
2023-04-27T09:21:13.203Z,18.50
2023-04-27T09:22:13.418Z,17.20
2023-04-27T09:23:13.682Z,17.80
2023-04-27T09:24:13.963Z,21.30
2023-04-27T09:25:14.378Z,16.80
2023-04-27T09:26:14.488Z,21.40
2023-04-27T09:27:14.720Z,19.90
2023-04-27T09:28:14.955Z,17.70
2023-04-27T09:29:15.699Z,21.60
2023-04-27T09:30:15.653Z,17.30
2023-04-27T09:31:15.969Z,19.60
2023-04-27T09:32:17.009Z,27.30
2023-04-27T09:33:16.335Z,32.60
2023-04-27T09:34:16.695Z,18.70
2023-04-27T09:35:17.028Z,14.20
2023-04-27T09:36:17.270Z,15.30
2023-04-27T09:37:17.652Z,17.00
2023-04-27T09:38:17.893Z,19.30
2023-04-27T09:39:18.049Z,17.50
2023-04-27T09:40:18.333Z,19.80
2023-04-27T09:41:18.649Z,24.30
2023-04-27T09:42:19.003Z,15.30
2023-04-27T09:43:19.176Z,17.60
2023-04-27T09:44:19.607Z,19.90
2023-04-27T09:45:19.817Z,14.30
2023-04-27T09:46:20.173Z,17.70
2023-04-27T09:47:20.353Z,17.80
2023-04-27T09:48:20.633Z,16.20
2023-04-27T09:49:20.901Z,15.60
2023-04-27T09:50:21.173Z,14.20
2023-04-27T09:51:21.468Z,13.70
2023-04-27T09:52:21.749Z,16.50
2023-04-27T09:53:22.012Z,15.70
2023-04-27T09:54:22.279Z,18.00
2023-04-27T09:55:22.581Z,18.20
2023-04-27T09:56:22.885Z,19.90
2023-04-27T09:57:23.160Z,19.80
2023-04-27T09:58:23.500Z,21.10
2023-04-27T09:59:23.731Z,18.10
2023-04-27T10:00:24.033Z,16.90
2023-04-27T10:01:24.392Z,21.30
2023-04-27T10:02:25.725Z,19.00
2023-04-27T10:03:24.896Z,18.70
2023-04-27T10:04:25.450Z,20.00
2023-04-27T10:05:25.757Z,19.80
2023-04-27T10:06:25.888Z,18.20
2023-04-27T10:07:26.045Z,19.20
2023-04-27T10:08:26.319Z,20.10
2023-04-27T10:09:26.563Z,20.20
2023-04-27T10:10:26.988Z,16.90
2023-04-27T10:11:27.080Z,21.30
2023-04-27T10:12:27.510Z,18.20
2023-04-27T10:13:27.829Z,22.30
2023-04-27T10:14:28.223Z,17.50
2023-04-27T10:15:28.449Z,18.70
2023-04-27T10:16:28.866Z,23.40
2023-04-27T10:17:28.951Z,21.10
2023-04-27T10:18:29.269Z,19.70
2023-04-27T10:19:29.509Z,20.90
2023-04-27T10:20:29.838Z,17.30
2023-04-27T10:21:30.165Z,21.60
2023-04-27T10:22:30.330Z,20.90
2023-04-27T10:23:30.631Z,18.50
2023-04-27T10:24:31.767Z,19.20
2023-04-27T10:25:31.261Z,21.40
2023-04-27T10:26:32.089Z,21.00
2023-04-27T10:27:31.778Z,23.00
2023-04-27T10:28:31.984Z,18.60
2023-04-27T10:29:32.254Z,18.00
2023-04-27T10:30:32.640Z,19.00
2023-04-27T10:31:32.929Z,16.30
2023-04-27T10:32:33.000Z,22.20
2023-04-27T10:33:33.392Z,20.50
2023-04-27T10:34:33.618Z,23.80
2023-04-27T10:35:33.991Z,19.40
2023-04-27T10:36:34.160Z,16.80
2023-04-27T10:37:34.635Z,14.90
2023-04-27T10:38:34.828Z,16.00
2023-04-27T10:39:47.141Z,14.50
2023-04-27T10:40:36.458Z,13.20
2023-04-27T10:41:35.730Z,15.90
2023-04-27T10:42:36.068Z,18.10
2023-04-27T10:43:36.446Z,21.50
2023-04-27T10:44:36.546Z,16.40
2023-04-27T10:45:37.822Z,22.20
2023-04-27T10:46:37.153Z,21.60
2023-04-27T10:47:37.488Z,17.20
2023-04-27T10:48:37.654Z,17.20
2023-04-27T10:49:37.897Z,18.30
2023-04-27T10:50:38.222Z,15.60
2023-04-27T10:51:38.500Z,19.00
2023-04-27T10:52:38.715Z,15.40
2023-04-27T10:53:39.997Z,15.40
2023-04-27T10:54:39.418Z,13.20
2023-04-27T10:55:39.709Z,15.70
2023-04-27T10:56:40.014Z,13.60
2023-04-27T10:57:40.295Z,16.70
2023-04-27T10:58:48.895Z,19.60
2023-04-27T10:59:41.950Z,16.10
2023-04-27T11:00:41.153Z,12.50
2023-04-27T11:01:41.489Z,15.80
2023-04-27T11:02:41.822Z,15.50
2023-04-27T11:03:42.153Z,11.10
2023-04-27T11:04:42.400Z,15.00
2023-04-27T11:05:42.721Z,13.70
2023-04-27T11:06:42.990Z,13.40
2023-04-27T11:07:43.491Z,24.80
2023-04-27T11:08:43.522Z,18.30
2023-04-27T11:09:43.797Z,16.10
2023-04-27T11:10:44.033Z,14.40
2023-04-27T11:11:44.332Z,14.00
2023-04-27T11:12:44.670Z,14.10
2023-04-27T11:13:45.994Z,14.40
2023-04-27T11:14:45.973Z,11.10
2023-04-27T11:15:45.877Z,16.70
2023-04-27T11:16:45.784Z,16.00
2023-04-27T11:17:46.070Z,14.80
2023-04-27T11:18:46.275Z,17.50
2023-04-27T11:19:46.557Z,17.20
2023-04-27T11:20:46.944Z,13.70
2023-04-27T11:21:47.301Z,12.80
2023-04-27T11:22:47.633Z,15.50
2023-04-27T11:23:47.951Z,11.70
2023-04-27T11:24:49.096Z,12.00
2023-04-27T11:25:48.496Z,16.50
2023-04-27T11:26:48.796Z,18.00
2023-04-27T11:27:48.999Z,15.50
2023-04-27T11:28:49.413Z,15.10
2023-04-27T11:29:49.748Z,13.50
2023-04-27T11:30:50.052Z,14.80
2023-04-27T11:31:50.312Z,13.80
2023-04-27T11:32:51.573Z,15.40
2023-04-27T11:33:50.937Z,16.10
2023-04-27T11:34:51.218Z,15.60
2023-04-27T11:35:51.483Z,16.20
2023-04-27T11:36:51.767Z,15.00
2023-04-27T11:37:52.010Z,12.50
2023-04-27T11:38:52.304Z,13.40
2023-04-27T11:39:52.639Z,12.20
2023-04-27T11:40:52.865Z,15.20
2023-04-27T11:41:52.994Z,14.40
2023-04-27T11:42:53.208Z,12.50
2023-04-27T11:43:53.606Z,13.20
2023-04-27T11:44:54.162Z,10.90
2023-04-27T11:45:54.051Z,16.00
2023-04-27T11:46:54.619Z,12.70
2023-04-27T11:47:54.778Z,16.00
2023-04-27T11:48:54.953Z,18.80
2023-04-27T11:49:55.236Z,14.50
2023-04-27T11:50:55.534Z,13.20
2023-04-27T11:51:55.792Z,15.60
2023-04-27T11:52:56.200Z,13.80
2023-04-27T11:53:57.200Z,11.50
2023-04-27T11:54:56.607Z,13.30
2023-04-27T11:55:56.850Z,11.70
2023-04-27T11:56:57.067Z,14.30
2023-04-27T11:57:57.496Z,12.20
2023-04-27T11:58:57.604Z,14.40
2023-04-27T11:59:58.013Z,13.80
2023-04-27T12:00:58.128Z,15.60
2023-04-27T12:01:58.426Z,13.00
2023-04-27T12:02:58.972Z,14.70
2023-04-27T12:04:02.126Z,16.10
2023-04-27T12:05:00.046Z,12.50
2023-04-27T12:06:11.691Z,15.30
2023-04-27T12:07:00.794Z,13.00
2023-04-27T12:08:00.004Z,14.90
2023-04-27T12:09:00.222Z,16.50
2023-04-27T12:10:01.061Z,14.90
2023-04-27T12:11:00.992Z,17.10
2023-04-27T12:12:01.257Z,21.10
2023-04-27T12:13:01.459Z,14.30
2023-04-27T12:14:01.767Z,15.70
2023-04-27T12:15:01.985Z,11.90
2023-04-27T12:16:02.285Z,13.70
2023-04-27T12:17:02.648Z,16.00
2023-04-27T12:18:03.069Z,13.80
2023-04-27T12:19:03.231Z,16.30
2023-04-27T12:20:03.435Z,12.80
2023-04-27T12:21:04.038Z,12.70
2023-04-27T12:22:03.939Z,11.70
2023-04-27T12:23:04.192Z,14.30
2023-04-27T12:24:04.500Z,13.80
2023-04-27T12:25:04.797Z,13.20
2023-04-27T12:26:05.028Z,14.40
2023-04-27T12:27:05.263Z,12.50
2023-04-27T12:28:05.621Z,16.10
2023-04-27T12:29:05.769Z,13.30
2023-04-27T12:30:06.182Z,13.00
2023-04-27T12:31:06.504Z,11.90
2023-04-27T12:32:06.748Z,12.50
2023-04-27T12:33:07.065Z,13.10
2023-04-27T12:34:07.372Z,14.20
2023-04-27T12:35:07.648Z,13.50
2023-04-27T12:36:07.824Z,12.30
2023-04-27T12:37:08.319Z,13.60
2023-04-27T12:38:08.378Z,12.10
2023-04-27T12:39:09.095Z,11.00
2023-04-27T12:40:08.918Z,12.60
2023-04-27T12:41:09.183Z,16.40
2023-04-27T12:42:09.404Z,11.70
2023-04-27T12:43:09.765Z,13.70
2023-04-27T12:44:10.030Z,13.00
2023-04-27T12:45:10.354Z,15.30
2023-04-27T12:46:10.559Z,14.80
2023-04-27T12:47:13.540Z,13.50
2023-04-27T12:48:12.048Z,12.70
2023-04-27T12:49:11.332Z,11.50
2023-04-27T12:50:11.719Z,11.80
2023-04-27T12:51:11.922Z,12.30
2023-04-27T12:52:12.112Z,16.90
2023-04-27T12:53:12.463Z,15.40
2023-04-27T12:54:13.217Z,11.00
2023-04-27T12:55:28.949Z,12.30
2023-04-27T12:56:14.347Z,13.90
2023-04-27T12:57:13.578Z,13.20
2023-04-27T12:58:13.917Z,11.50
2023-04-27T12:59:14.286Z,13.50
2023-04-27T13:00:14.655Z,15.00
2023-04-27T13:01:14.852Z,15.80
2023-04-27T13:02:15.302Z,11.20
2023-04-27T13:03:15.491Z,11.10
2023-04-27T13:04:15.955Z,11.10
2023-04-27T13:05:15.935Z,12.20
2023-04-27T13:06:16.174Z,13.20
2023-04-27T13:07:16.394Z,18.00
2023-04-27T13:08:16.794Z,14.40
2023-04-27T13:09:17.871Z,17.70
2023-04-27T13:10:17.249Z,16.00
2023-04-27T13:11:17.521Z,13.60
2023-04-27T13:12:17.843Z,11.30
2023-04-27T13:13:18.117Z,14.00
2023-04-27T13:14:18.520Z,15.80
2023-04-27T13:15:18.800Z,12.30
2023-04-27T13:16:19.076Z,15.00